Airfield :
LOGIN :

Register | Disclaimer

   EN    FR    IT 

 










Legend :    VFR   Marginal VFR   IFR   Intensive IFR   Very Intensive IFR
Visi :
Ceiling :
>= 8 km
>= 3000ft
5 to 8 km
1000 to 3000 ft
1500m to 5 km
500 to 1000 ft
800 to 1500m
200 to 500 ft
< 800m
< 200 ft
Symbols :   Thunderstorms  Fog  Heavy snow  Heavy precipitations  Wind > 20 kt
SIGMETs :     Misc.  Thunderstorms  Icing  Turbulence  Mountain Waves  Volcanic Ashes







- Airport Elevation : 17 ft
- IATA code : MPL
- Download approach charts


LFMT - Montpellier Méditerranée

CURRENT METAR :
  • 221900Z AUTO 02013KT CAVOK 25/03 Q1016 TEMPO 01018G30KT

EXPIRED METARs :
  • 221830Z AUTO 02014KT CAVOK 26/04 Q1015 TEMPO 01018G30KT
  • 221800Z AUTO 02014KT 8000 NSC 27/04 Q1015 TEMPO 01018G30KT
  • 221730Z AUTO 02014KT 7000 NSC 28/06 Q1015 TEMPO 01018G30KT
  • 221700Z AUTO 02015KT 7000 NSC 29/04 Q1015 TEMPO 01018G30KT
  • 221630Z AUTO 02015KT 7000 NSC 29/04 Q1015 TEMPO 01018G30KT
  • 221600Z AUTO 02014KT 8000 NSC 30/03 Q1014 TEMPO 01018G30KT

TAF TAF LFMT
Valid from the 22 at 15:00 until the 23 at 15:00 UTC


221400Z 2215/2315 01015KT CAVOK
TEMPO 2215/2220 01018G30KT
TEMPO 2312/2315 VRB05KT
ATIS : +33 4 67 13 11 70
No reported NOTAMs for that airfield.
2 SIGMETs reported for the Marseille FIR (LFMM) :
 
Severe turbulence
LFMM SIGMET 4 VALID 221900/222300 LFPW
LFMM MARSEILLE FIR/UIR SEV TURB FCST WI N4500 E00500 - N4300 E00515 - N4315 E00415 - N4500 E00330 - N4500 E00500 SFC/FL050 STNR WKN=
Severe turbulence
LFMM SIGMET 3 VALID 221500/221900 LFPW
LFMM MARSEILLE FIR/UIR SEV TURB OBS WI N4500 E00500 - N4300 E00515 - N4315 E00415 - N4500 E00330 - N4500 E00500 SFC/FL050 STNR NC=



MET'MAP, your aeronautical weather chart ! - Copyright ORBIFLY December 2007 - Disclaimer

ORBIFLY MET'MAP TEAM :

Programming & Development : Alexandra Zaïnal
Concept & Development : Baudouin d'Aumeries
Co-Development & Prog : Marc-Olivier Méhu
Technical & hardware support : Manuel Goepfert

Contact : metmap@orbifly.com




SOURCES & CREDITS :

   NOAA